• Join FlightAware (Why Join?)
  • Login
  • US Flag 
04:25PM EDT


 

Airport Tracker/Info


-or-


 

Live Flight TrackerFlight Track Log ✈ AWI3778 ✈ 05-Aug-2013 ✈ KPHL - KBTV

Flight Track Log - Related Links

Times and Time Zones

All times are in EDT time to prevent confusion due to time zone crossing. See the AWI3778 flight status page for this flight to view local times or setup timezone preferences in your user account.

Time Position Orientation Groundspeed Altitude Reporting Facility
EDT Latitude Longitude Course Direction KTS MPH feet Rate Location/Type
12:01PM 39.8667 -75.2833 37° Northeast 166 191 800  Level Philadelphia TRACON
12:01PM 39.8333 -75.3000 201° Southwest 198 228 2,000 2,580 Climbing Philadelphia TRACON
12:02PM 39.7833 -75.3500 218° Southwest 220 253 5,000 2,400 Climbing Philadelphia TRACON
12:03PM 39.8167 -74.8908 90° East  Level FlightAware Approximate
12:03PM 39.7500 -75.2667 117° Southeast 288 331 6,800  Level Philadelphia TRACON
12:04PM 39.7981 -74.7739 105° East  Level FlightAware Approximate
12:05PM 39.8099 -74.6735 37° Northeast  Level FlightAware Approximate
12:05PM 39.7606 -75.1158 85° East 305 351 10,300  Level New York Center
12:06PM 39.8830 -74.6004 37° Northeast  Level FlightAware Approximate
12:06PM 39.7714 -74.9897 84° East 312 359 11,900  Level New York Center
12:07PM 39.7797 -74.8714 85° East 348 400 12,400 900 Climbing New York Center
12:08PM 39.7992 -74.7239 80° East 363 418 13,800 1,440 Climbing New York Center
12:09PM 39.8728 -74.6414 41° Northeast 349 402 15,400 1,620 Climbing New York Center
12:10PM 39.9547 -74.5594 37° Northeast 355 409 17,000 1,560 Climbing New York Center
12:11PM 40.0389 -74.4744 38° Northeast 374 430 18,500 1,500 Climbing New York Center
12:12PM 40.1225 -74.3947 36° Northeast 379 436 20,100 1,560 Climbing New York Center
12:13PM 40.2042 -74.3119 38° Northeast 373 429 21,700 1,320 Climbing New York Center
12:14PM 40.2903 -74.2267 37° Northeast 373 429 22,800 900 Climbing New York Center
12:15PM 40.3892 -74.1936 14° North 356 410 23,600 840 Climbing New York Center
12:16PM 40.4919 -74.1658 12° North 363 418 24,500 660 Climbing New York Center
12:17PM 40.6008 -74.1467 North 379 436 25,000 240 Climbing New York Center
12:18PM 40.7103 -74.1139 13° North 392 451 25,000  Level New York Center
12:20PM 40.9153 -74.0661 10° North 431 496 25,000  Level Boston Center
12:21PM 41.0344 -74.0389 10° North 436 502 25,000  Level Boston Center
12:22PM 41.1578 -74.0089 10° North 436 502 25,000  Level Boston Center
12:23PM 41.2769 -73.9786 11° North 436 502 25,000  Level Boston Center
12:24PM 41.4003 -73.9483 10° North 441 507 25,000  Level Boston Center
12:25PM 41.5239 -73.9153 11° North 441 507 25,000  Level Boston Center
12:26PM 41.6431 -73.8875 10° North 447 514 25,000  Level Boston Center
12:27PM 41.7683 -73.8569 10° North 447 514 25,000  Level Boston Center
12:28PM 41.8958 -73.8292 North 440 506 25,000  Level Boston Center
12:29PM 42.0192 -73.7953 12° North 440 506 25,000  Level Boston Center
12:30PM 42.1383 -73.7672 10° North 440 506 25,000  Level Boston Center
12:31PM 42.2575 -73.7275 14° North 440 506 25,000  Level Boston Center
12:32PM 42.3650 -73.6314 33° Northeast 440 506 25,000  Level Boston Center
12:33PM 42.4742 -73.5408 31° Northeast 445 512 25,000  Level Boston Center
12:34PM 42.5814 -73.4494 32° Northeast 445 512 25,000  Level Boston Center
12:35PM 42.6883 -73.3581 32° Northeast 450 518 25,000  Level Boston Center
12:36PM 42.7850 -73.2775 31° Northeast 455 524 25,000  Level Boston Center
12:37PM 42.8919 -73.1853 32° Northeast 455 524 25,000  Level Boston Center
12:38PM 43.0008 -73.0958 31° Northeast 450 518 25,000 -300 Level Boston Center
12:39PM 43.1097 -73.0061 31° Northeast 450 518 24,400 -540 Descending Boston Center
12:40PM 43.2183 -72.9186 30° Northeast 450 518 24,000 -840 Descending Boston Center
12:41PM 43.3353 -72.9053 North 428 493 22,800 -1,020 Descending Boston Center
12:42PM 43.4475 -72.9319 350° North 402 463 22,000 -1,320 Descending Boston Center
12:43PM 43.5497 -72.9528 352° North 389 448 20,200 -2,100 Descending Boston Center
12:44PM 43.6536 -72.9767 351° North 383 441 17,800 -2,520 Descending Boston Center
12:45PM 43.7578 -73.0006 351° North 378 435 15,200 -2,520 Descending Boston Center
12:46PM 43.8639 -73.0217 352° North 378 435 12,700 -2,100 Descending Boston Center
12:47PM 43.9575 -73.0428 351° North 360 414 11,000 -1,440 Descending Boston Center
12:48PM 44.0367 -73.0608 351° North 308 354 9,900 -1,560 Descending Boston Center
12:49PM 44.1075 -73.0761 351° North 266 306 8,000 -1,860 Descending Boston Center
12:50PM 44.1639 -73.0708 North 249 287 6,300 -1,260 Descending Boston Center
12:51PM 44.2450 -73.0631 North 249 287 5,500 -900 Descending Boston Center
12:52PM 44.3139 -73.0639 360° North 232 267 4,500 -960 Descending Boston Center
12:53PM 44.3700 -73.0672 358° North 206 237 3,600 -1,200 Descending Boston Center
12:54PM 44.4136 -73.0825 346° North 173 199 2,100 -1,320 Descending Boston Center
12:55PM 44.4469 -73.1147 325° Northwest 150 173 1,100 -900 Descending Boston Center
12:56PM 44.4656 -73.1439 312° West 139 160 400 -420 Descending Boston Center
12:57PM 44.4736 -73.1586 307° West 61 70 300  Descending Boston Center
12:58PM 44.4717 -73.1558 134° Southeast 32 37 400 60 Climbing Boston Center